createdAt,value
2018-02-05T00:00:57.887Z,95681.17
2018-02-05T00:03:25.518Z,95687.03
2018-02-05T00:05:54.716Z,95701.24
2018-02-05T00:08:26.105Z,95687.92
2018-02-05T00:10:58.584Z,95699.68
2018-02-05T00:13:28.403Z,95691.94
2018-02-05T00:15:55.925Z,95707.94
2018-02-05T00:18:23.710Z,95710.02
2018-02-05T00:23:35.284Z,95708.82
2018-02-05T00:26:02.814Z,95698.97
2018-02-05T00:28:30.335Z,95706.22
2018-02-05T00:30:57.850Z,95705.97
2018-02-05T00:33:25.407Z,95708.79
2018-02-05T00:35:52.956Z,95712.34
2018-02-05T00:38:20.536Z,95708.39
2018-02-05T00:40:48.395Z,95708.73
2018-02-05T00:43:15.994Z,95711.12
2018-02-05T00:45:43.536Z,95723.60
2018-02-05T00:48:11.055Z,95719.48
2018-02-05T00:50:38.939Z,95719.88
2018-02-05T00:53:06.828Z,95718.72
2018-02-05T00:55:34.472Z,95721.72
2018-02-05T00:58:02.552Z,95710.61
2018-02-05T01:00:30.132Z,95721.98
2018-02-05T01:02:58.454Z,95669.59
2018-02-05T01:05:26.021Z,95730.59
2018-02-05T01:07:53.546Z,95738.86
2018-02-05T01:10:21.077Z,95733.48
2018-02-05T01:12:48.982Z,95726.52
2018-02-05T01:15:16.782Z,95731.36
2018-02-05T01:17:44.380Z,95724.14
2018-02-05T01:20:12.849Z,95731.38
2018-02-05T01:22:41.152Z,95720.67
2018-02-05T01:25:09.593Z,95729.86
2018-02-05T01:27:37.130Z,95725.59
2018-02-05T01:30:06.224Z,95731.14
2018-02-05T01:32:33.763Z,95731.08
2018-02-05T01:35:01.302Z,95742.20
2018-02-05T01:37:28.879Z,95740.36
2018-02-05T01:39:56.424Z,95733.39
2018-02-05T01:42:24.230Z,95738.94
2018-02-05T01:44:51.764Z,95738.08
2018-02-05T01:47:19.299Z,95738.63
2018-02-05T01:49:46.837Z,95741.11
2018-02-05T01:52:14.385Z,95733.71
2018-02-05T01:54:42.248Z,95739.98
2018-02-05T01:57:09.794Z,95733.64
2018-02-05T01:59:37.340Z,95738.24
2018-02-05T02:02:04.878Z,95743.81
2018-02-05T02:04:32.951Z,95738.57
2018-02-05T02:07:00.538Z,95754.36
2018-02-05T02:09:28.099Z,95763.00
2018-02-05T02:11:55.609Z,95754.69
2018-02-05T02:14:23.142Z,95761.18
2018-02-05T02:16:50.688Z,95746.28
2018-02-05T02:19:18.302Z,95740.23
2018-02-05T02:21:45.818Z,95747.92
2018-02-05T02:24:13.337Z,95751.91
2018-02-05T02:26:40.891Z,95746.73
2018-02-05T02:29:08.460Z,95758.11
2018-02-05T02:31:35.993Z,95756.11
2018-02-05T02:34:03.536Z,95757.24
2018-02-05T02:36:31.976Z,95769.86
2018-02-05T02:38:59.506Z,95764.77
2018-02-05T02:41:27.058Z,95766.44
2018-02-05T02:43:54.588Z,95771.83
2018-02-05T02:46:22.125Z,95766.67
2018-02-05T02:48:49.699Z,95773.41
2018-02-05T02:51:17.258Z,95771.05
2018-02-05T02:53:44.827Z,95773.27
2018-02-05T02:56:13.383Z,95777.46
2018-02-05T02:58:40.925Z,95775.64
2018-02-05T03:01:08.531Z,95775.39
2018-02-05T03:03:36.121Z,95776.82
2018-02-05T03:06:03.645Z,95782.14
2018-02-05T03:08:31.185Z,95776.13
2018-02-05T03:10:58.729Z,95777.87
2018-02-05T03:13:26.296Z,95784.77
2018-02-05T03:15:53.825Z,95793.18
2018-02-05T03:18:21.351Z,95796.42
2018-02-05T03:20:48.874Z,95801.34
2018-02-05T03:23:16.437Z,95803.23
2018-02-05T03:25:44.011Z,95801.56
2018-02-05T03:28:11.533Z,95807.66
2018-02-05T03:30:39.118Z,95805.06
2018-02-05T03:33:06.667Z,95807.51
2018-02-05T03:35:34.191Z,95812.65
2018-02-05T03:38:01.709Z,95796.20
2018-02-05T03:40:29.262Z,95816.07
2018-02-05T03:42:56.855Z,95817.75
2018-02-05T03:45:24.421Z,95811.82
2018-02-05T03:47:51.947Z,95821.73
2018-02-05T03:50:19.869Z,95819.36
2018-02-05T03:52:47.426Z,95821.98
2018-02-05T03:55:15.056Z,95829.73
2018-02-05T03:57:42.891Z,95835.20
2018-02-05T04:00:10.624Z,95833.85
2018-02-05T04:02:38.170Z,95835.34
2018-02-05T04:05:05.704Z,95840.66
2018-02-05T04:07:33.255Z,95843.68
2018-02-05T04:10:00.789Z,95841.68
2018-02-05T04:12:28.458Z,95843.89
2018-02-05T04:14:55.969Z,95846.73
2018-02-05T04:17:23.496Z,95855.00
2018-02-05T04:19:51.013Z,95848.95
2018-02-05T04:22:18.548Z,95856.09
2018-02-05T04:24:46.342Z,95863.70
2018-02-05T04:27:13.872Z,95865.37
2018-02-05T04:29:41.396Z,95865.52
2018-02-05T04:32:09.171Z,95867.01
2018-02-05T04:34:36.737Z,95870.83
2018-02-05T04:37:04.336Z,95874.22
2018-02-05T04:39:31.856Z,95875.02
2018-02-05T04:41:59.406Z,95875.09
2018-02-05T04:44:26.946Z,95880.62
2018-02-05T04:46:54.483Z,95886.58
2018-02-05T04:49:22.059Z,95888.62
2018-02-05T04:51:49.577Z,95888.62
2018-02-05T04:54:17.150Z,95888.77
2018-02-05T04:56:44.924Z,95892.19
2018-02-05T04:59:12.821Z,95890.98
2018-02-05T05:01:40.469Z,95883.98
2018-02-05T05:04:08.243Z,95885.27
2018-02-05T05:06:35.786Z,95893.59
2018-02-05T05:09:03.557Z,95891.84
2018-02-05T05:11:31.319Z,95888.21
2018-02-05T05:13:58.917Z,95900.25
2018-02-05T05:16:27.310Z,95904.19
2018-02-05T05:18:54.896Z,95903.41
2018-02-05T05:21:23.280Z,95909.75
2018-02-05T05:23:51.050Z,95907.19
2018-02-05T05:26:18.685Z,95918.23
2018-02-05T05:28:46.560Z,95915.13
2018-02-05T05:31:14.166Z,95921.69
2018-02-05T05:33:41.914Z,95916.30
2018-02-05T05:36:09.663Z,95919.25
2018-02-05T05:38:37.327Z,95930.97
2018-02-05T05:41:05.258Z,95932.88
2018-02-05T05:43:32.958Z,95932.03
2018-02-05T05:46:00.532Z,95946.73
2018-02-05T05:48:28.298Z,95953.03
2018-02-05T05:50:56.076Z,95953.25
2018-02-05T05:53:23.679Z,95961.48
2018-02-05T05:55:51.277Z,95964.87
2018-02-05T05:58:18.875Z,95962.81
2018-02-05T06:00:46.466Z,95962.19
2018-02-05T06:03:14.021Z,95955.48
2018-02-05T06:05:41.553Z,95968.34
2018-02-05T06:08:09.095Z,95972.41
2018-02-05T06:10:36.635Z,95970.68
2018-02-05T06:13:04.563Z,95967.99
2018-02-05T06:15:32.124Z,95969.63
2018-02-05T06:17:59.732Z,95971.60
2018-02-05T06:20:27.315Z,95971.14
2018-02-05T06:22:54.908Z,95970.75
2018-02-05T06:25:22.452Z,95977.44
2018-02-05T06:27:50.195Z,95971.63
2018-02-05T06:30:17.762Z,95979.64
2018-02-05T06:32:45.368Z,95970.59
2018-02-05T06:35:13.011Z,95968.91
2018-02-05T06:37:40.552Z,95976.64
2018-02-05T06:40:08.106Z,95984.13
2018-02-05T06:42:35.674Z,95988.11
2018-02-05T06:45:04.474Z,95988.31
2018-02-05T06:47:32.076Z,95992.10
2018-02-05T06:49:59.613Z,95988.22
2018-02-05T06:52:39.008Z,95991.61
2018-02-05T06:55:18.249Z,95992.58
2018-02-05T06:57:46.644Z,95996.23
2018-02-05T07:00:14.505Z,96000.41
2018-02-05T07:02:42.021Z,96007.63
2018-02-05T07:05:09.680Z,95995.15
2018-02-05T07:07:37.274Z,95988.91
2018-02-05T07:10:04.811Z,95981.58
2018-02-05T07:12:32.397Z,95982.86
2018-02-05T07:15:01.377Z,95987.80
2018-02-05T07:17:28.995Z,95986.66
2018-02-05T07:19:56.558Z,95998.74
2018-02-05T07:22:24.102Z,95993.11
2018-02-05T07:24:51.662Z,95990.66
2018-02-05T07:27:19.221Z,95992.34
2018-02-05T07:29:50.892Z,95987.53
2018-02-05T07:32:18.484Z,95992.73
2018-02-05T07:34:46.072Z,95998.44
2018-02-05T07:37:13.644Z,95997.35
2018-02-05T07:39:41.190Z,95994.59
2018-02-05T07:42:09.137Z,95992.89
2018-02-05T07:44:36.696Z,96000.88
2018-02-05T07:47:04.399Z,95999.53
2018-02-05T07:49:31.983Z,96005.59
2018-02-05T07:51:59.729Z,95994.05
2018-02-05T07:54:27.564Z,95992.30
2018-02-05T07:56:56.442Z,95991.03
2018-02-05T07:59:24.124Z,95986.86
2018-02-05T08:01:51.922Z,95989.94
2018-02-05T08:04:19.449Z,95979.05
2018-02-05T08:06:47.041Z,95983.91
2018-02-05T08:09:14.942Z,95970.59
2018-02-05T08:11:42.522Z,95981.77
2018-02-05T08:14:10.602Z,95976.94
2018-02-05T08:16:38.262Z,95976.95
2018-02-05T08:19:05.960Z,95970.83
2018-02-05T08:21:33.692Z,95977.74
2018-02-05T08:24:01.292Z,95977.05
2018-02-05T08:26:29.232Z,95971.91
2018-02-05T08:28:56.833Z,95976.98
2018-02-05T08:31:24.585Z,95976.98
2018-02-05T08:33:52.161Z,95974.95
2018-02-05T08:36:19.753Z,95982.08
2018-02-05T08:38:47.400Z,95979.92
2018-02-05T08:41:15.173Z,95983.75
2018-02-05T08:43:42.925Z,95984.33
2018-02-05T08:46:11.160Z,95980.48
2018-02-05T08:48:39.411Z,95972.72
2018-02-05T08:51:09.095Z,95961.53
2018-02-05T08:53:37.227Z,95955.75
2018-02-05T08:56:06.838Z,95962.77
2018-02-05T08:58:34.442Z,95965.06
2018-02-05T09:01:02.060Z,95969.28
2018-02-05T09:03:29.682Z,95970.34
2018-02-05T09:05:57.286Z,95962.32
2018-02-05T09:08:24.901Z,95964.97
2018-02-05T09:10:52.976Z,95969.58
2018-02-05T09:13:21.232Z,95965.20
2018-02-05T09:15:48.859Z,95956.28
2018-02-05T09:18:16.502Z,95965.72
2018-02-05T09:20:44.059Z,95969.05
2018-02-05T09:23:11.652Z,95964.81
2018-02-05T09:25:39.184Z,95970.38
2018-02-05T09:28:07.932Z,95969.67
2018-02-05T09:30:35.541Z,95965.12
2018-02-05T09:33:03.561Z,95956.73
2018-02-05T09:35:31.489Z,95960.55
2018-02-05T09:38:00.166Z,95956.83
2018-02-05T09:40:27.774Z,95956.63
2018-02-05T09:42:57.162Z,95946.27
2018-02-05T09:45:24.818Z,95949.88
2018-02-05T09:47:52.445Z,95945.31
2018-02-05T09:50:20.038Z,95947.19
2018-02-05T09:52:47.638Z,95928.79
2018-02-05T09:55:16.009Z,95941.73
2018-02-05T09:57:43.610Z,95937.59
2018-02-05T10:00:11.554Z,95935.99
2018-02-05T10:02:39.851Z,95941.10
2018-02-05T10:05:07.974Z,95931.20
2018-02-05T10:07:36.071Z,95934.91
2018-02-05T10:10:04.995Z,95934.70
2018-02-05T10:12:33.356Z,95949.16
2018-02-05T10:15:00.948Z,95969.84
2018-02-05T10:20:11.528Z,96028.66
2018-02-05T10:22:40.169Z,96043.92
2018-02-05T10:25:08.193Z,96048.63
2018-02-05T10:27:36.613Z,96033.79
2018-02-05T10:30:08.210Z,96026.97
2018-02-05T10:32:36.400Z,96100.73
2018-02-05T10:35:05.295Z,96172.58
2018-02-05T10:37:33.742Z,96164.52
2018-02-05T10:40:08.150Z,96097.06
2018-02-05T10:42:36.521Z,95992.86
2018-02-05T10:45:05.279Z,95935.80
2018-02-05T10:47:32.962Z,95901.98
2018-02-05T10:50:00.800Z,95886.30
2018-02-05T10:52:31.804Z,95865.19
2018-02-05T10:55:21.414Z,95859.06
2018-02-05T10:57:51.150Z,95847.52
2018-02-05T11:00:18.802Z,95850.20
2018-02-05T11:02:47.071Z,95843.45
2018-02-05T11:05:14.822Z,95841.28
2018-02-05T11:07:42.480Z,95841.95
2018-02-05T11:10:10.444Z,95832.28
2018-02-05T11:12:59.276Z,95834.97
2018-02-05T11:15:27.747Z,95834.84
2018-02-05T11:17:55.430Z,95828.99
2018-02-05T11:20:22.959Z,95820.16
2018-02-05T11:22:50.702Z,95819.91
2018-02-05T11:25:19.333Z,95817.86
2018-02-05T11:27:46.889Z,95807.09
2018-02-05T11:30:14.546Z,95810.19
2018-02-05T11:32:42.076Z,95809.98
2018-02-05T11:35:09.603Z,95812.94
2018-02-05T11:37:37.178Z,95813.49
2018-02-05T11:40:04.918Z,95810.44
2018-02-05T11:42:33.390Z,95811.27
2018-02-05T11:45:01.610Z,95803.22
2018-02-05T11:47:29.122Z,95798.03
2018-02-05T11:49:56.638Z,95809.42
2018-02-05T11:52:24.691Z,95806.72
2018-02-05T11:54:52.205Z,95803.41
2018-02-05T11:57:19.718Z,95802.05
2018-02-05T11:59:47.304Z,95800.33
2018-02-05T12:02:14.857Z,95798.81
2018-02-05T12:04:42.850Z,95790.51
2018-02-05T12:07:10.385Z,95793.28
2018-02-05T12:09:38.420Z,95800.81
2018-02-05T12:12:05.948Z,95796.90
2018-02-05T12:14:33.491Z,95800.09
2018-02-05T12:17:01.098Z,95792.34
2018-02-05T12:19:28.785Z,95796.91
2018-02-05T12:21:56.536Z,95788.73
2018-02-05T12:24:24.134Z,95782.56
2018-02-05T12:26:51.742Z,95791.00
2018-02-05T12:29:19.263Z,95785.70
2018-02-05T12:31:46.844Z,95778.87
2018-02-05T12:34:14.372Z,95765.80
2018-02-05T12:36:42.268Z,95769.50
2018-02-05T12:39:09.822Z,95770.34
2018-02-05T12:41:37.386Z,95777.16
2018-02-05T12:44:05.288Z,95759.19
2018-02-05T12:46:32.843Z,95766.54
2018-02-05T12:49:00.389Z,95765.42
2018-02-05T12:51:27.896Z,95767.20
2018-02-05T12:53:55.495Z,95766.41
2018-02-05T12:56:23.132Z,95766.86
2018-02-05T12:58:50.762Z,95757.79
2018-02-05T13:04:35.242Z,95758.17
2018-02-05T13:07:02.845Z,95758.83
2018-02-05T13:09:30.349Z,95752.27
2018-02-05T13:11:57.909Z,95752.72
2018-02-05T13:14:25.487Z,95743.81
2018-02-05T13:16:53.334Z,95738.98
2018-02-05T13:19:20.949Z,95747.66
2018-02-05T13:21:48.741Z,95747.06
2018-02-05T13:24:16.262Z,95743.43
2018-02-05T13:26:43.812Z,95748.48
2018-02-05T13:29:11.455Z,95739.48
2018-02-05T13:31:39.025Z,95738.25
2018-02-05T13:34:08.062Z,95726.75
2018-02-05T13:36:35.582Z,95732.70
2018-02-05T13:39:03.226Z,95731.20
2018-02-05T13:41:30.761Z,95728.16
2018-02-05T13:43:58.321Z,95725.69
2018-02-05T13:46:25.893Z,95722.20
2018-02-05T13:48:53.417Z,95725.58
2018-02-05T13:51:20.995Z,95723.06
2018-02-05T13:53:48.582Z,95716.83
2018-02-05T13:56:16.117Z,95720.98
2018-02-05T13:58:43.642Z,95716.89
2018-02-05T14:01:11.347Z,95717.26
2018-02-05T14:03:38.915Z,95652.25
2018-02-05T14:06:06.529Z,95710.70
2018-02-05T14:08:34.096Z,95715.14
2018-02-05T14:11:01.626Z,95701.91
2018-02-05T14:13:29.178Z,95709.91
2018-02-05T14:15:56.857Z,95706.02
2018-02-05T14:18:24.714Z,95713.45
2018-02-05T14:20:52.247Z,95717.41
2018-02-05T14:23:19.818Z,95713.88
2018-02-05T14:25:47.335Z,95715.20
2018-02-05T14:28:14.899Z,95720.98
2018-02-05T14:30:42.494Z,95721.77
2018-02-05T14:33:10.061Z,95713.69
2018-02-05T14:35:37.611Z,95720.69
2018-02-05T14:38:05.165Z,95721.96
2018-02-05T14:40:32.805Z,95719.81
2018-02-05T14:43:00.358Z,95716.95
2018-02-05T14:45:27.933Z,95709.27
2018-02-05T14:47:55.499Z,95714.83
2018-02-05T14:50:23.400Z,95716.27
2018-02-05T14:52:50.958Z,95724.15
2018-02-05T14:55:18.531Z,95726.97
2018-02-05T14:57:46.110Z,95725.45
2018-02-05T15:00:13.758Z,95729.36
2018-02-05T15:02:41.272Z,95727.86
2018-02-05T15:05:09.099Z,95728.38
2018-02-05T15:07:36.723Z,95731.88
2018-02-05T15:10:04.257Z,95733.43
2018-02-05T15:12:31.804Z,95730.86
2018-02-05T15:14:59.419Z,95733.38
2018-02-05T15:17:26.935Z,95719.18
2018-02-05T15:19:54.449Z,95725.79
2018-02-05T15:22:22.078Z,95738.41
2018-02-05T15:24:49.740Z,95738.14
2018-02-05T15:27:17.269Z,95739.88
2018-02-05T15:29:44.813Z,95744.69
2018-02-05T15:32:13.244Z,95735.01
2018-02-05T15:34:40.851Z,95730.67
2018-02-05T15:37:08.798Z,95745.89
2018-02-05T15:39:37.186Z,95744.81
2018-02-05T15:42:05.121Z,95741.09
2018-02-05T15:44:32.811Z,95741.30
2018-02-05T15:47:00.432Z,95740.01
2018-02-05T15:49:28.013Z,95740.76
2018-02-05T15:51:55.752Z,95734.55
2018-02-05T15:54:23.334Z,95735.82
2018-02-05T15:56:50.891Z,95732.16
2018-02-05T15:59:18.700Z,95735.22
2018-02-05T16:01:46.349Z,95726.63
2018-02-05T16:04:13.905Z,95724.48
2018-02-05T16:06:41.442Z,95729.73
2018-02-05T16:09:09.246Z,95722.47
2018-02-05T16:11:37.026Z,95719.42
2018-02-05T16:14:04.632Z,95711.39
2018-02-05T16:16:32.986Z,95714.74
2018-02-05T16:19:00.632Z,95728.97
2018-02-05T16:21:28.193Z,95726.63
2018-02-05T16:23:55.779Z,95724.85
2018-02-05T16:26:23.318Z,95726.84
2018-02-05T16:28:51.436Z,95726.87
2018-02-05T16:31:19.056Z,95730.19
2018-02-05T16:33:46.693Z,95725.91
2018-02-05T16:36:14.280Z,95735.80
2018-02-05T16:38:41.991Z,95733.05
2018-02-05T16:41:09.595Z,95732.64
2018-02-05T16:43:37.374Z,95736.59
2018-02-05T16:46:05.062Z,95738.58
2018-02-05T16:48:32.689Z,95731.92
2018-02-05T16:51:00.415Z,95738.11
2018-02-05T16:53:28.058Z,95735.19
2018-02-05T16:55:56.270Z,95739.02
2018-02-05T16:58:23.838Z,95739.98
2018-02-05T17:00:51.413Z,95740.45
2018-02-05T17:03:18.938Z,95741.41
2018-02-05T17:05:47.303Z,95745.80
2018-02-05T17:08:14.968Z,95741.69
2018-02-05T17:10:42.523Z,95732.42
2018-02-05T17:13:10.111Z,95754.24
2018-02-05T17:15:37.687Z,95752.48
2018-02-05T17:18:05.241Z,95744.15
2018-02-05T17:20:32.901Z,95762.47
2018-02-05T17:23:00.480Z,95764.49
2018-02-05T17:25:28.097Z,95759.77
2018-02-05T17:27:55.702Z,95764.13
2018-02-05T17:30:23.353Z,95750.78
2018-02-05T17:32:50.950Z,95764.05
2018-02-05T17:35:18.512Z,95760.02
2018-02-05T17:37:46.158Z,95763.61
2018-02-05T17:40:13.727Z,95768.23
2018-02-05T17:42:41.280Z,95763.33
2018-02-05T17:45:08.963Z,95770.44
2018-02-05T17:47:36.513Z,95753.97
2018-02-05T17:50:04.073Z,95763.42
2018-02-05T17:52:31.650Z,95758.95
2018-02-05T17:55:00.498Z,95760.33
2018-02-05T17:57:29.141Z,95756.27
2018-02-05T17:59:56.751Z,95765.13
2018-02-05T18:02:24.433Z,95775.83
2018-02-05T18:04:52.176Z,95747.37
2018-02-05T18:07:19.709Z,95775.48
2018-02-05T18:09:47.329Z,95770.47
2018-02-05T18:12:14.970Z,95779.44
2018-02-05T18:14:42.928Z,95780.50
2018-02-05T18:17:10.505Z,95768.16
2018-02-05T18:19:38.364Z,95771.85
2018-02-05T18:22:05.960Z,95771.20
2018-02-05T18:24:33.671Z,95773.22
2018-02-05T18:27:02.044Z,95776.04
2018-02-05T18:29:29.592Z,95773.55
2018-02-05T18:31:57.279Z,95781.62
2018-02-05T18:34:24.816Z,95772.64
2018-02-05T18:36:52.649Z,95766.94
2018-02-05T18:39:22.459Z,95772.86
2018-02-05T18:41:50.510Z,95768.91
2018-02-05T18:44:18.895Z,95768.66
2018-02-05T18:46:46.473Z,95765.34
2018-02-05T18:49:14.054Z,95767.05
2018-02-05T18:51:41.602Z,95763.38
2018-02-05T18:54:09.539Z,95766.01
2018-02-05T18:56:44.906Z,95773.13
2018-02-05T18:59:12.513Z,95768.77
2018-02-05T19:01:40.426Z,95764.50
2018-02-05T19:04:07.997Z,95756.11
2018-02-05T19:06:36.462Z,95771.75
2018-02-05T19:09:04.067Z,95774.30
2018-02-05T19:11:31.631Z,95774.24
2018-02-05T19:13:59.437Z,95773.60
2018-02-05T19:16:27.058Z,95767.62
2018-02-05T19:18:54.849Z,95777.85
2018-02-05T19:21:22.854Z,95775.55
2018-02-05T19:23:50.982Z,95764.52
2018-02-05T19:26:18.593Z,95765.77
2018-02-05T19:28:46.400Z,95774.53
2018-02-05T19:31:14.427Z,95769.33
2018-02-05T19:33:41.975Z,95789.14
2018-02-05T19:36:10.221Z,95768.42
2018-02-05T19:38:38.884Z,95771.93
2018-02-05T19:41:06.703Z,95766.36
2018-02-05T19:43:34.295Z,95759.00
2018-02-05T19:46:01.953Z,95774.33
2018-02-05T19:48:30.184Z,95775.84
2018-02-05T19:50:57.771Z,95779.45
2018-02-05T19:53:25.530Z,95784.33
2018-02-05T19:55:53.338Z,95791.71
2018-02-05T19:58:21.122Z,95775.69
2018-02-05T20:00:48.732Z,95790.08
2018-02-05T20:03:16.302Z,95781.80
2018-02-05T20:05:43.848Z,95789.88
2018-02-05T20:08:11.481Z,95792.24
2018-02-05T20:10:39.427Z,95786.13
2018-02-05T20:13:07.324Z,95789.84
2018-02-05T20:15:34.942Z,95787.38
2018-02-05T20:18:02.558Z,95790.69
2018-02-05T20:20:30.103Z,95783.70
2018-02-05T20:22:57.777Z,95715.06
2018-02-05T20:25:25.383Z,95792.60
2018-02-05T20:27:53.156Z,95785.42
2018-02-05T20:30:20.954Z,95787.33
2018-02-05T20:32:48.815Z,95790.62
2018-02-05T20:35:17.329Z,95796.39
2018-02-05T20:37:45.138Z,95791.83
2018-02-05T20:40:14.676Z,95785.11
2018-02-05T20:42:42.215Z,95797.13
2018-02-05T20:45:09.817Z,95795.27
2018-02-05T20:47:41.304Z,95790.27
2018-02-05T20:50:15.443Z,95796.51
2018-02-05T20:52:42.994Z,95798.30
2018-02-05T20:55:10.556Z,95768.52
2018-02-05T20:57:39.197Z,95799.05
2018-02-05T21:00:07.842Z,95792.23
2018-02-05T21:02:36.104Z,95791.37
2018-02-05T21:05:03.665Z,95792.81
2018-02-05T21:07:31.708Z,95786.21
2018-02-05T21:09:59.275Z,95791.41
2018-02-05T21:12:27.174Z,95791.00
2018-02-05T21:14:54.880Z,95787.10
2018-02-05T21:17:28.469Z,95793.86
2018-02-05T21:19:56.267Z,95795.45
2018-02-05T21:23:00.239Z,95793.31
2018-02-05T21:25:32.648Z,95798.47
2018-02-05T21:28:01.203Z,95800.38
2018-02-05T21:30:28.892Z,95801.52
2018-02-05T21:32:56.461Z,95798.66
2018-02-05T21:35:25.836Z,95805.17
2018-02-05T21:37:53.485Z,95801.83
2018-02-05T21:40:22.967Z,95814.73
2018-02-05T21:42:50.744Z,95790.22
2018-02-05T21:45:18.418Z,95806.16
2018-02-05T21:47:46.013Z,95810.37
2018-02-05T21:50:13.555Z,95806.41
2018-02-05T21:52:41.220Z,95810.55
2018-02-05T21:55:08.988Z,95808.74
2018-02-05T22:11:43.618Z,95826.59
2018-02-05T22:14:11.230Z,95831.23
2018-02-05T22:16:39.065Z,95839.19
2018-02-05T22:19:06.883Z,95833.72
2018-02-05T22:21:34.394Z,95835.71
2018-02-05T22:24:01.914Z,95812.79
2018-02-05T22:26:29.602Z,95823.60
2018-02-05T22:28:57.144Z,95830.00
2018-02-05T22:34:35.083Z,95821.30
2018-02-05T22:37:02.777Z,95828.98
2018-02-05T22:53:26.132Z,95830.34
2018-02-05T22:55:53.713Z,95840.30
2018-02-05T22:58:21.589Z,95836.73
2018-02-05T23:00:49.242Z,95836.33
2018-02-05T23:03:16.786Z,95834.98
2018-02-05T23:05:44.320Z,95836.33
2018-02-05T23:08:11.976Z,95833.44
2018-02-05T23:10:39.509Z,95828.22
2018-02-05T23:13:07.059Z,95823.77
2018-02-05T23:15:35.430Z,95829.17
2018-02-05T23:18:04.075Z,95828.62
2018-02-05T23:20:33.048Z,95823.52
2018-02-05T23:23:00.792Z,95811.60
2018-02-05T23:25:28.962Z,95813.17
2018-02-05T23:27:56.765Z,95815.87
2018-02-05T23:30:24.797Z,95810.47
2018-02-05T23:32:52.376Z,95810.71
2018-02-05T23:35:20.007Z,95813.08
2018-02-05T23:37:56.115Z,95813.33
2018-02-05T23:40:24.406Z,95809.67
2018-02-05T23:42:51.933Z,95804.02
2018-02-05T23:45:20.624Z,95808.72
2018-02-05T23:47:48.147Z,95810.83
2018-02-05T23:50:17.760Z,95803.77
2018-02-05T23:52:47.703Z,95802.63
2018-02-05T23:55:15.465Z,95806.47
2018-02-05T23:57:43.016Z,95797.26
